Time;durP1;ratioP1;P1;durP2;ratioP2;P2;SDS_P1;SDS_P2;PMS_P1;PMS_P2;Temp;Humidity;BMP_temperature;BMP_pressure;BME280_temperature;BME280_humidity;BME280_pressure;Samples;Min_cycle;Max_cycle;Signal;HPM_P1;HPM_P2
2021/03/17 00:01:50;;;;;;;33.63;11.68;;;;;;;3.35;57.79;99622.59;5073663;28;20045;-62
2021/03/17 00:04:15;;;;;;;27.33;11.68;;;;;;;3.20;58.00;99606.63;5072047;28;20058;-61
2021/03/17 00:06:41;;;;;;;26.80;11.65;;;;;;;3.51;58.19;99662.38;5071439;28;20052;-60
2021/03/17 00:09:06;;;;;;;32.78;12.23;;;;;;;3.58;57.91;99656.63;5071198;28;20036;-59
2021/03/17 00:11:33;;;;;;;30.38;11.40;;;;;;;3.72;56.76;99661.16;5054467;28;20037;-60
2021/03/17 00:13:58;;;;;;;24.25;11.68;;;;;;;3.70;56.76;99651.63;5053626;28;20124;-61
2021/03/17 00:16:23;;;;;;;28.25;12.05;;;;;;;3.34;56.76;99594.44;5055074;28;20141;-63
2021/03/17 00:18:51;;;;;;;22.50;11.05;;;;;;;3.67;56.75;99657.09;5053051;28;20125;-61
2021/03/17 00:21:16;;;;;;;24.73;11.38;;;;;;;3.71;57.17;99648.88;5054549;28;20041;-61
2021/03/17 00:23:42;;;;;;;38.22;12.35;;;;;;;3.73;56.96;99644.34;5053508;28;20441;-63
2021/03/17 00:26:07;;;;;;;23.70;11.55;;;;;;;3.40;57.66;99612.66;5054014;28;20465;-61
2021/03/17 00:28:32;;;;;;;22.92;11.88;;;;;;;3.56;57.04;99624.09;5054286;28;20033;-61
2021/03/17 00:30:58;;;;;;;37.65;12.00;;;;;;;3.58;57.03;99627.50;5053315;28;20123;-61
2021/03/17 00:33:23;;;;;;;31.40;12.07;;;;;;;3.74;56.88;99650.50;5054299;28;20033;-62
2021/03/17 00:35:49;;;;;;;33.03;12.40;;;;;;;3.77;57.14;99647.69;5054401;28;20029;-62
2021/03/17 00:38:14;;;;;;;28.38;12.35;;;;;;;3.73;56.75;99654.94;5052808;28;20040;-63
2021/03/17 00:40:40;;;;;;;31.65;13.00;;;;;;;3.66;57.13;99650.91;5065337;28;20033;-61
2021/03/17 00:43:05;;;;;;;25.35;11.65;;;;;;;3.59;56.91;99631.88;5065416;28;20036;-59
2021/03/17 00:45:31;;;;;;;27.10;11.40;;;;;;;3.64;57.04;99641.38;5070217;28;20080;-60
2021/03/17 00:47:56;;;;;;;25.70;10.70;;;;;;;3.68;56.99;99648.19;5071520;28;20050;-63
2021/03/17 00:50:22;;;;;;;32.28;13.88;;;;;;;3.58;56.40;99642.56;5072567;28;20044;-61
2021/03/17 00:52:48;;;;;;;29.67;11.70;;;;;;;3.54;57.15;99639.22;5071213;28;20116;-64
2021/03/17 00:55:14;;;;;;;32.47;11.25;;;;;;;3.22;57.20;99588.88;5072661;28;20044;-62
2021/03/17 00:57:40;;;;;;;31.50;11.90;;;;;;;3.50;56.93;99642.97;5069440;28;20032;-62
2021/03/17 01:00:09;;;;;;;31.23;12.13;;;;;;;3.54;56.88;99644.50;5070074;28;20067;-57
2021/03/17 01:02:35;;;;;;;35.38;12.07;;;;;;;3.51;56.84;99634.09;5052601;28;20075;-60
2021/03/17 01:05:01;;;;;;;26.85;11.68;;;;;;;3.41;56.89;99611.72;5052392;28;20076;-58
2021/03/17 01:07:26;;;;;;;26.38;10.65;;;;;;;3.50;57.16;99635.03;5054786;28;20410;-62
2021/03/17 01:09:52;;;;;;;23.10;11.70;;;;;;;3.42;56.91;99626.66;5052805;28;20547;-60
2021/03/17 01:12:18;;;;;;;32.75;11.93;;;;;;;3.44;57.36;99630.06;5051818;28;20469;-61
2021/03/17 01:14:44;;;;;;;34.13;12.60;;;;;;;3.50;56.66;99634.19;5051861;28;20041;-61
2021/03/17 01:17:11;;;;;;;28.73;11.85;;;;;;;3.40;57.37;99624.06;5052469;28;20110;-64
2021/03/17 01:19:37;;;;;;;29.02;11.23;;;;;;;3.46;56.53;99630.84;5053429;28;20568;-62
2021/03/17 01:22:03;;;;;;;23.80;11.13;;;;;;;3.41;57.04;99627.59;5052063;28;20037;-62
2021/03/17 01:24:29;;;;;;;22.80;10.32;;;;;;;3.35;56.72;99626.13;5053218;28;20426;-58
2021/03/17 01:26:54;;;;;;;30.92;10.98;;;;;;;3.42;57.07;99619.56;5056740;28;20028;-61
2021/03/17 01:29:20;;;;;;;25.20;11.18;;;;;;;3.34;56.96;99619.13;5071609;28;20446;-61
2021/03/17 01:31:45;;;;;;;31.20;11.48;;;;;;;3.30;57.28;99607.84;5070033;28;20078;-60
2021/03/17 01:34:11;;;;;;;20.25;11.05;;;;;;;3.25;57.15;99604.59;5071752;28;20045;-60
2021/03/17 01:36:36;;;;;;;23.65;10.45;;;;;;;3.39;57.51;99610.94;5069592;28;20047;-61
2021/03/17 01:39:03;;;;;;;21.13;10.75;;;;;;;3.32;57.48;99599.84;5070460;28;20079;-62
2021/03/17 01:41:29;;;;;;;27.33;10.27;;;;;;;3.51;57.19;99622.66;5071973;28;20032;-61
2021/03/17 01:43:54;;;;;;;28.88;9.88;;;;;;;3.56;57.27;99617.97;5069623;28;20052;-60
2021/03/17 01:46:20;;;;;;;25.58;10.52;;;;;;;3.43;56.59;99578.91;5068806;28;20103;-61
2021/03/17 01:48:45;;;;;;;24.05;10.52;;;;;;;3.63;56.14;99603.44;5053738;28;20051;-61
2021/03/17 01:51:11;;;;;;;24.42;10.57;;;;;;;3.59;56.31;99605.38;5071482;28;20040;-62
2021/03/17 01:53:38;;;;;;;17.58;9.57;;;;;;;3.57;56.20;99606.44;5071493;28;20337;-60
2021/03/17 01:56:05;;;;;;;26.75;9.00;;;;;;;3.44;56.40;99595.66;5069635;28;20032;-61
2021/03/17 01:58:31;;;;;;;22.67;10.50;;;;;;;3.48;55.60;99596.31;5069977;28;20127;-61
2021/03/17 02:00:57;;;;;;;29.15;10.00;;;;;;;3.35;56.33;99590.84;5069179;28;20039;-62
2021/03/17 02:03:24;;;;;;;24.55;10.20;;;;;;;3.37;56.22;99602.22;5051679;28;20033;-62
2021/03/17 02:05:50;;;;;;;20.77;8.95;;;;;;;3.32;56.77;99585.72;5051462;28;20116;-61
2021/03/17 02:08:22;;;;;;;25.73;10.07;;;;;;;3.30;56.34;99601.72;5068306;28;20551;-62
2021/03/17 02:10:49;;;;;;;18.48;8.52;;;;;;;2.93;56.36;99543.69;5069965;28;20037;-61
2021/03/17 02:13:29;;;;;;;26.65;8.90;;;;;;;3.30;56.93;99601.72;5055601;28;20505;-60
2021/03/17 02:16:13;;;;;;;22.33;8.65;;;;;;;3.34;56.28;99597.94;5051217;28;20378;-61
2021/03/17 02:19:08;;;;;;;19.40;8.40;;;;;;;3.11;56.77;99559.50;5051419;28;20477;-60
2021/03/17 02:21:52;;;;;;;22.25;8.18;;;;;;;3.40;56.12;99594.13;5050500;28;20052;-57
2021/03/17 02:24:45;;;;;;;20.83;7.68;;;;;;;3.39;55.91;99605.66;5052135;28;20053;-58
2021/03/17 02:27:31;;;;;;;26.60;6.85;;;;;;;3.44;54.79;99599.16;5064390;28;20394;-61
2021/03/17 02:30:33;;;;;;;23.33;6.60;;;;;;;3.41;55.13;99601.97;5071014;28;20036;-60
2021/03/17 02:33:17;;;;;;;19.02;7.05;;;;;;;3.34;54.72;99599.72;5064528;28;20034;-61
2021/03/17 02:35:48;;;;;;;18.50;6.93;;;;;;;3.20;55.38;99595.19;5050971;28;20490;-62
2021/03/17 02:38:15;;;;;;;17.85;6.25;;;;;;;3.19;55.14;99599.63;5052125;28;20040;-60
2021/03/17 02:40:42;;;;;;;18.88;6.60;;;;;;;3.16;55.12;99592.72;5065086;28;20082;-63
2021/03/17 02:43:12;;;;;;;18.02;6.00;;;;;;;3.16;54.83;99605.94;5069010;28;20141;-63
2021/03/17 02:45:41;;;;;;;22.15;6.82;;;;;;;3.21;54.69;99605.69;5060581;28;20064;-62
2021/03/17 02:48:24;;;;;;;15.75;6.10;;;;;;;3.22;54.42;99591.53;5063466;28;20123;-61
2021/03/17 02:50:53;;;;;;;14.85;5.55;;;;;;;3.23;54.39;99601.19;5070775;28;20051;-62
2021/03/17 02:53:24;;;;;;;16.75;6.30;;;;;;;3.19;54.06;99591.69;5070638;28;20064;-63
2021/03/17 02:55:58;;;;;;;16.35;5.80;;;;;;;3.20;53.51;99597.84;5058141;28;20033;-60
2021/03/17 02:58:24;;;;;;;18.45;5.85;;;;;;;3.10;53.80;99568.38;5051498;28;20040;-62
2021/03/17 03:00:51;;;;;;;18.65;7.10;;;;;;;3.05;53.95;99595.09;5050425;28;20075;-59
2021/03/17 03:03:18;;;;;;;16.35;6.00;;;;;;;2.95;53.71;99573.56;5054370;28;20028;-62
2021/03/17 03:05:45;;;;;;;12.60;6.10;;;;;;;2.94;53.75;99566.56;5068263;28;20033;-62
2021/03/17 03:08:10;;;;;;;19.10;6.53;;;;;;;3.03;53.50;99582.88;5067380;28;20474;-60
2021/03/17 03:10:38;;;;;;;11.55;5.35;;;;;;;2.96;53.86;99577.03;5069950;28;20037;-60
2021/03/17 03:13:05;;;;;;;11.40;5.07;;;;;;;3.01;54.01;99593.50;5069719;28;20040;-59
2021/03/17 03:15:32;;;;;;;22.30;5.53;;;;;;;2.85;53.46;99567.03;5067257;28;20150;-62
2021/03/17 03:18:01;;;;;;;14.20;5.38;;;;;;;2.98;53.94;99585.75;5068652;28;20122;-60
2021/03/17 03:20:31;;;;;;;19.40;5.45;;;;;;;2.97;53.45;99598.13;5050052;28;20032;-62
2021/03/17 03:22:57;;;;;;;14.68;5.10;;;;;;;2.85;53.88;99583.78;5050274;28;20037;-60
2021/03/17 03:25:25;;;;;;;12.70;5.05;;;;;;;2.80;54.35;99579.66;5051113;28;20025;-60
2021/03/17 03:27:52;;;;;;;14.82;5.03;;;;;;;2.88;54.01;99588.03;5051223;28;20074;-61
2021/03/17 03:30:23;;;;;;;19.55;6.20;;;;;;;2.84;54.25;99575.91;5050740;28;20488;-61
2021/03/17 03:32:48;;;;;;;10.98;5.20;;;;;;;2.84;54.95;99582.06;5049846;28;20487;-61
2021/03/17 03:35:18;;;;;;;17.23;4.60;;;;;;;2.98;54.10;99583.09;5053774;28;20033;-59
2021/03/17 03:37:43;;;;;;;17.33;5.10;;;;;;;2.91;53.90;99573.78;5065877;28;20059;-61
2021/03/17 03:40:18;;;;;;;14.30;5.03;;;;;;;2.85;54.54;99567.03;5071804;28;20434;-61
2021/03/17 03:42:45;;;;;;;13.68;5.22;;;;;;;2.94;54.32;99576.28;5073649;28;20033;-60
2021/03/17 03:45:14;;;;;;;25.08;5.10;;;;;;;2.98;54.29;99578.69;5072556;28;20420;-60
2021/03/17 03:47:40;;;;;;;12.40;4.68;;;;;;;2.64;54.31;99530.22;5072013;28;20044;-62
2021/03/17 03:50:08;;;;;;;21.27;5.15;;;;;;;2.99;53.80;99593.63;5071078;28;20142;-59
2021/03/17 03:52:41;;;;;;;14.38;4.78;;;;;;;3.01;54.43;99585.59;5073860;28;20040;-63
2021/03/17 03:55:31;;;;;;;12.77;4.97;;;;;;;2.96;53.87;99583.19;5072782;28;20040;-56
2021/03/17 03:58:02;;;;;;;18.90;6.93;;;;;;;3.05;53.30;99599.50;5057722;28;20045;-62
2021/03/17 04:00:32;;;;;;;12.95;5.00;;;;;;;3.01;53.60;99588.22;5054572;28;20528;-61
2021/03/17 04:03:01;;;;;;;11.18;4.25;;;;;;;2.91;53.64;99557.94;5053598;28;20037;-62
2021/03/17 04:05:35;;;;;;;14.88;4.72;;;;;;;2.91;53.77;99566.72;5053726;28;20603;-60
2021/03/17 04:08:11;;;;;;;13.13;5.50;;;;;;;2.67;54.43;99516.84;5054736;28;20120;-64
2021/03/17 04:10:38;;;;;;;13.80;6.35;;;;;;;3.03;54.42;99570.50;5068972;28;20059;-60
2021/03/17 04:13:06;;;;;;;17.42;7.63;;;;;;;3.07;54.75;99573.81;5053333;28;20117;-60
2021/03/17 04:15:35;;;;;;;25.85;7.93;;;;;;;3.09;55.16;99567.53;5057686;28;20039;-61
2021/03/17 04:18:20;;;;;;;20.67;8.02;;;;;;;2.94;55.44;99547.19;5071396;28;20040;-61
2021/03/17 04:20:50;;;;;;;23.52;8.27;;;;;;;2.95;55.50;99554.19;5066851;28;20087;-62
2021/03/17 04:23:16;;;;;;;21.20;7.57;;;;;;;2.78;55.56;99518.06;5053564;28;20040;-61
2021/03/17 04:25:47;;;;;;;18.58;6.43;;;;;;;2.96;54.25;99555.88;5054319;28;20028;-62
2021/03/17 04:28:15;;;;;;;18.05;4.82;;;;;;;2.96;52.93;99559.41;5054279;28;20123;-60
2021/03/17 04:30:42;;;;;;;13.68;3.88;;;;;;;2.81;52.91;99554.91;5053931;28;20035;-59
2021/03/17 04:33:09;;;;;;;14.38;4.10;;;;;;;2.91;52.76;99566.72;5053071;28;20033;-59
2021/03/17 04:35:35;;;;;;;10.30;3.78;;;;;;;2.95;51.56;99570.91;5052749;28;20461;-63
2021/03/17 04:38:01;;;;;;;13.20;4.45;;;;;;;2.78;52.30;99547.16;5057424;28;20032;-62
2021/03/17 04:40:27;;;;;;;10.88;4.05;;;;;;;2.86;52.05;99564.31;5054832;28;20080;-58
2021/03/17 04:42:53;;;;;;;14.75;4.35;;;;;;;2.92;52.45;99571.09;5052834;28;20036;-60
2021/03/17 04:45:19;;;;;;;9.18;4.88;;;;;;;2.80;51.60;99559.38;5052233;28;20053;-62
2021/03/17 04:47:46;;;;;;;14.20;5.03;;;;;;;2.89;53.00;99563.28;5053278;28;20063;-62
2021/03/17 04:50:16;;;;;;;12.93;5.47;;;;;;;2.86;53.00;99577.53;5053942;28;20505;-62
2021/03/17 04:52:44;;;;;;;12.63;5.70;;;;;;;2.84;53.48;99560.03;5052654;28;20395;-62
2021/03/17 04:55:12;;;;;;;17.50;6.30;;;;;;;2.97;53.29;99576.97;5052320;28;20427;-63
2021/03/17 04:57:39;;;;;;;17.40;6.55;;;;;;;2.94;53.71;99571.84;5053786;28;20444;-62
2021/03/17 05:00:10;;;;;;;12.77;5.88;;;;;;;2.94;52.29;99581.56;5053087;28;20506;-60
2021/03/17 05:02:39;;;;;;;12.70;4.80;;;;;;;2.87;51.95;99566.03;5062549;28;20123;-57
2021/03/17 05:05:08;;;;;;;12.63;5.13;;;;;;;2.77;52.30;99563.94;5072214;28;20188;-60
2021/03/17 05:07:36;;;;;;;10.93;3.80;;;;;;;2.42;52.40;99518.16;5069906;28;20397;-61
2021/03/17 05:10:03;;;;;;;12.30;4.53;;;;;;;2.92;51.19;99571.09;5070250;28;20040;-62
2021/03/17 05:12:30;;;;;;;12.43;4.25;;;;;;;2.84;51.35;99574.13;5072080;28;20055;-61
2021/03/17 05:14:58;;;;;;;12.98;3.97;;;;;;;2.87;50.71;99575.75;5070173;28;20446;-60
2021/03/17 05:17:23;;;;;;;8.30;3.83;;;;;;;2.89;50.35;99571.22;5072156;28;20032;-61
2021/03/17 05:19:49;;;;;;;8.13;4.05;;;;;;;2.84;50.55;99566.19;5067411;28;20033;-60
2021/03/17 05:22:15;;;;;;;8.30;3.85;;;;;;;2.91;50.29;99566.72;5071706;28;20044;-60
2021/03/17 05:24:41;;;;;;;8.35;3.85;;;;;;;2.94;50.04;99579.78;5072360;28;20545;-60
2021/03/17 05:27:13;;;;;;;8.73;4.00;;;;;;;2.97;49.49;99576.09;5058080;28;20120;-60
2021/03/17 05:29:39;;;;;;;13.77;4.00;;;;;;;3.00;49.42;99571.53;5053199;28;20448;-60
2021/03/17 05:32:07;;;;;;;13.32;4.72;;;;;;;2.99;49.14;99559.22;5053018;28;20112;-61
2021/03/17 05:34:44;;;;;;;11.80;4.68;;;;;;;2.95;49.14;99547.13;5051605;28;20036;-61
2021/03/17 05:37:10;;;;;;;14.68;5.00;;;;;;;3.08;49.75;99557.88;5051997;28;20048;-61
2021/03/17 05:39:36;;;;;;;13.00;5.30;;;;;;;3.14;49.07;99562.00;5053708;28;20040;-61
2021/03/17 05:42:01;;;;;;;12.45;4.78;;;;;;;3.13;49.34;99558.50;5052317;28;20037;-62
2021/03/17 05:44:27;;;;;;;15.32;5.30;;;;;;;3.26;49.08;99560.47;5051041;28;20033;-60
2021/03/17 05:46:53;;;;;;;11.43;5.22;;;;;;;2.87;49.15;99497.28;5051326;28;20080;-60
2021/03/17 05:49:18;;;;;;;21.05;5.78;;;;;;;3.24;49.29;99565.84;5066003;28;20115;-62
2021/03/17 05:51:44;;;;;;;13.73;5.72;;;;;;;3.23;48.75;99560.63;5056347;28;20025;-57
2021/03/17 05:54:10;;;;;;;11.40;5.88;;;;;;;3.15;48.33;99539.91;5051603;28;20138;-61
2021/03/17 05:56:36;;;;;;;12.02;5.07;;;;;;;3.18;49.41;99552.09;5050521;28;20036;-61
2021/03/17 05:59:02;;;;;;;17.88;5.50;;;;;;;3.15;49.05;99529.31;5051145;28;20410;-63
2021/03/17 06:01:28;;;;;;;11.32;5.53;;;;;;;3.22;49.45;99532.47;5052162;28;20043;-60
2021/03/17 06:03:55;;;;;;;16.33;5.07;;;;;;;3.39;49.18;99547.44;5053096;28;20040;-62
2021/03/17 06:06:24;;;;;;;15.27;5.57;;;;;;;3.47;48.47;99545.19;5050637;28;20139;-61
2021/03/17 06:08:55;;;;;;;15.30;6.05;;;;;;;3.45;48.66;99547.09;5063840;28;20040;-60
2021/03/17 06:11:22;;;;;;;16.23;6.20;;;;;;;3.42;48.70;99555.19;5065759;28;20025;-58
2021/03/17 06:13:52;;;;;;;11.73;6.07;;;;;;;2.69;48.42;99435.69;5051861;28;20033;-55
2021/03/17 06:16:22;;;;;;;13.07;6.15;;;;;;;3.27;48.49;99533.91;5052292;28;20064;-58
2021/03/17 06:18:53;;;;;;;16.85;5.43;;;;;;;3.42;48.26;99549.91;5050997;28;20049;-58
2021/03/17 06:21:20;;;;;;;13.75;6.22;;;;;;;3.46;48.54;99551.44;5056812;28;20512;-59
2021/03/17 06:23:46;;;;;;;12.43;5.93;;;;;;;3.52;48.75;99543.16;5061376;28;20094;-62
2021/03/17 06:26:12;;;;;;;18.75;6.40;;;;;;;3.65;48.35;99550.41;5058324;28;20491;-61
2021/03/17 06:28:39;;;;;;;16.20;5.93;;;;;;;3.77;47.60;99557.66;5052016;28;20044;-55
2021/03/17 06:31:05;;;;;;;13.75;5.43;;;;;;;3.86;48.13;99554.50;5050316;28;20033;-59
2021/03/17 06:33:30;;;;;;;14.88;6.35;;;;;;;3.87;47.72;99540.31;5051661;28;20409;-61
2021/03/17 06:36:16;;;;;;;13.32;6.35;;;;;;;4.02;47.33;99564.19;5050806;28;20120;-61
2021/03/17 06:38:42;;;;;;;18.92;6.45;;;;;;;4.01;46.96;99562.47;5052056;28;20048;-62
2021/03/17 06:41:08;;;;;;;11.82;5.88;;;;;;;3.81;46.27;99540.63;5051333;28;20490;-61
2021/03/17 06:43:41;;;;;;;19.38;6.40;;;;;;;3.70;46.89;99548.34;5051319;28;20029;-60
2021/03/17 06:46:15;;;;;;;13.20;5.70;;;;;;;3.29;46.88;99476.47;5050551;28;20214;-56
2021/03/17 06:48:41;;;;;;;10.82;5.50;;;;;;;3.74;46.71;99555.19;5050924;28;20485;-60
2021/03/17 06:51:12;;;;;;;15.07;5.70;;;;;;;3.70;46.46;99553.66;5050976;28;20090;-61
2021/03/17 06:53:56;;;;;;;15.00;5.82;;;;;;;3.65;46.95;99545.13;5057988;28;20098;-59
2021/03/17 06:56:27;;;;;;;13.50;5.70;;;;;;;3.22;46.74;99485.72;5070023;28;20101;-61
2021/03/17 06:58:55;;;;;;;15.88;5.85;;;;;;;3.57;47.18;99543.72;5069616;28;20040;-60
2021/03/17 07:01:40;;;;;;;15.45;6.55;;;;;;;3.67;46.60;99536.13;5069472;28;20047;-58
2021/03/17 07:04:21;;;;;;;16.38;6.15;;;;;;;3.86;46.52;99543.91;5068789;28;20494;-58
2021/03/17 07:06:59;;;;;;;19.23;5.72;;;;;;;3.87;46.38;99534.13;5068311;28;20166;-58
2021/03/17 07:09:27;;;;;;;16.58;5.65;;;;;;;4.03;46.57;99539.41;5059178;28;20069;-59
2021/03/17 07:12:13;;;;;;;16.15;6.38;;;;;;;4.27;45.93;99536.25;5048875;28;20037;-60
2021/03/17 07:14:45;;;;;;;16.25;7.45;;;;;;;4.42;45.53;99530.06;5050620;28;20087;-60
2021/03/17 07:17:28;;;;;;;14.25;6.13;;;;;;;4.51;45.59;99530.44;5050343;28;20461;-59
2021/03/17 07:19:54;;;;;;;15.15;6.00;;;;;;;4.43;45.06;99531.75;5052377;28;20127;-60
2021/03/17 07:22:20;;;;;;;19.42;6.60;;;;;;;4.30;45.89;99533.41;5049989;28;20037;-59
2021/03/17 07:24:47;;;;;;;20.27;6.28;;;;;;;4.38;45.65;99536.50;5049702;28;20033;-61
2021/03/17 07:27:21;;;;;;;9.73;5.60;;;;;;;4.22;44.95;99480.03;5051377;28;20123;-62
2021/03/17 07:30:02;;;;;;;15.77;6.25;;;;;;;4.61;45.16;99526.31;5049240;28;20065;-60
2021/03/17 07:33:03;;;;;;;12.05;6.00;;;;;;;4.68;45.35;99526.75;5066295;28;20394;-57
2021/03/17 07:35:37;;;;;;;17.05;6.63;;;;;;;4.73;44.37;99528.19;5067608;28;20067;-60
2021/03/17 07:38:07;;;;;;;18.02;6.43;;;;;;;4.63;44.86;99521.75;5066547;28;20391;-60
2021/03/17 07:40:36;;;;;;;17.85;6.43;;;;;;;4.59;45.59;99523.72;5055467;28;20094;-60
2021/03/17 07:43:02;;;;;;;17.77;6.35;;;;;;;4.65;45.44;99519.84;5049934;28;20033;-63
2021/03/17 07:45:31;;;;;;;15.82;6.60;;;;;;;4.79;45.28;99510.19;5047141;28;20426;-58
2021/03/17 07:47:58;;;;;;;23.27;6.93;;;;;;;4.91;45.06;99522.69;5047469;28;20453;-61
2021/03/17 07:50:24;;;;;;;17.95;7.57;;;;;;;4.94;45.30;99513.69;5050159;28;20029;-59
2021/03/17 07:52:52;;;;;;;15.75;6.50;;;;;;;4.96;44.95;99507.34;5049692;28;20047;-58
2021/03/17 07:55:19;;;;;;;16.00;6.82;;;;;;;5.03;45.47;99515.78;5066955;28;20041;-60
2021/03/17 07:57:45;;;;;;;16.00;6.50;;;;;;;4.98;44.60;99486.88;5069464;28;20555;-56
2021/03/17 08:00:12;;;;;;;14.18;6.45;;;;;;;5.20;44.62;99496.13;5069803;28;20502;-56
2021/03/17 08:02:38;;;;;;;19.40;6.88;;;;;;;5.36;44.46;99500.47;5066985;28;20040;-59
2021/03/17 08:05:05;;;;;;;15.27;7.07;;;;;;;5.49;44.41;99500.53;5069322;28;20037;-60
2021/03/17 08:07:31;;;;;;;19.67;8.00;;;;;;;5.63;44.22;99500.47;5051589;28;20041;-59
2021/03/17 08:09:58;;;;;;;16.35;7.47;;;;;;;5.76;43.59;99503.16;5049313;28;20037;-57
2021/03/17 08:12:24;;;;;;;17.27;7.40;;;;;;;5.85;43.81;99505.25;5049567;28;20029;-58
2021/03/17 08:14:51;;;;;;;24.23;6.40;;;;;;;5.78;43.00;99498.59;5048520;28;20533;-60
2021/03/17 08:17:37;;;;;;;19.55;6.72;;;;;;;5.64;43.51;99496.03;5067373;28;20540;-59
2021/03/17 08:20:23;;;;;;;18.55;7.20;;;;;;;5.48;43.13;99507.63;5063744;28;20089;-63
2021/03/17 08:22:51;;;;;;;17.52;6.88;;;;;;;5.22;43.31;99496.06;5070610;28;20092;-60
2021/03/17 08:25:37;;;;;;;12.40;6.72;;;;;;;5.23;43.63;99492.44;5071333;28;20036;-59
2021/03/17 08:28:22;;;;;;;15.57;6.32;;;;;;;5.31;44.26;99490.13;5070650;28;20036;-60
2021/03/17 08:30:55;;;;;;;13.95;6.88;;;;;;;5.29;43.73;99478.78;5069505;28;20036;-51
2021/03/17 08:33:34;;;;;;;19.67;6.70;;;;;;;5.49;43.49;99490.75;5066713;28;20044;-58
2021/03/17 08:36:11;;;;;;;24.65;7.40;;;;;;;5.63;43.01;99484.53;5061664;28;20036;-59
2021/03/17 08:38:43;;;;;;;15.48;6.97;;;;;;;5.76;42.44;99481.91;5066167;28;20036;-66
2021/03/17 08:41:08;;;;;;;24.13;7.10;;;;;;;5.75;42.32;99477.56;5071657;28;20039;-69
2021/03/17 08:43:37;;;;;;;16.08;7.32;;;;;;;5.79;42.18;99479.09;5070749;28;20041;-70
2021/03/17 08:46:12;;;;;;;18.08;7.18;;;;;;;5.89;42.37;99474.84;5071071;28;20056;-65
2021/03/17 08:48:57;;;;;;;26.37;7.17;;;;;;;6.01;41.40;99483.84;5067345;28;20044;-63
2021/03/17 08:51:44;;;;;;;15.32;6.80;;;;;;;6.19;41.80;99475.59;5071308;28;20044;-63
2021/03/17 08:54:35;;;;;;;18.67;7.78;;;;;;;6.56;41.44;99478.34;5063496;28;20025;-62
2021/03/17 08:57:05;;;;;;;19.15;8.60;;;;;;;6.88;40.21;99472.59;5070904;28;20040;-63
2021/03/17 08:59:54;;;;;;;27.42;11.00;;;;;;;7.18;39.84;99463.38;5068801;28;20098;-64
2021/03/17 09:02:26;;;;;;;23.80;11.20;;;;;;;7.39;39.60;99461.91;5071234;28;20035;-63
2021/03/17 09:04:53;;;;;;;31.85;12.27;;;;;;;7.46;38.70;99466.66;5069560;28;20082;-64
2021/03/17 09:07:21;;;;;;;33.38;13.30;;;;;;;7.42;38.60;99462.53;5067373;28;20540;-64
2021/03/17 09:09:54;;;;;;;27.23;12.25;;;;;;;7.52;38.14;99468.03;5069609;28;20465;-63
2021/03/17 09:12:39;;;;;;;24.52;11.55;;;;;;;7.52;38.64;99457.38;5068711;28;20094;-64
2021/03/17 09:15:13;;;;;;;29.38;13.35;;;;;;;7.82;37.87;99450.72;5068401;28;20382;-64
2021/03/17 09:17:54;;;;;;;32.38;14.27;;;;;;;8.17;38.10;99449.84;5067742;28;20439;-63
2021/03/17 09:20:29;;;;;;;31.70;13.70;;;;;;;8.35;37.24;99444.06;5063667;28;20047;-63
2021/03/17 09:22:57;;;;;;;32.73;13.73;;;;;;;8.48;36.86;99452.81;5069394;28;20476;-63
2021/03/17 09:25:33;;;;;;;33.17;14.38;;;;;;;8.50;36.83;99451.88;5069386;28;20142;-63
2021/03/17 09:28:07;;;;;;;30.45;13.57;;;;;;;8.45;36.93;99449.53;5069791;28;20044;-58
2021/03/17 09:30:42;;;;;;;24.23;10.93;;;;;;;8.57;36.83;99455.75;5068448;28;20548;-63
2021/03/17 09:33:14;;;;;;;29.40;10.80;;;;;;;8.50;36.67;99422.53;5049976;28;20044;-63
2021/03/17 09:35:41;;;;;;;45.28;20.55;;;;;;;8.63;36.94;99436.59;5066875;28;20051;-61
2021/03/17 09:38:13;;;;;;;19.20;9.40;;;;;;;8.65;36.52;99442.66;5063008;28;20036;-62
2021/03/17 09:41:09;;;;;;;29.75;9.02;;;;;;;8.50;36.37;99443.88;5070065;28;20032;-63
2021/03/17 09:43:59;;;;;;;18.15;9.00;;;;;;;7.99;36.85;99365.97;5069050;28;20442;-61
2021/03/17 09:46:40;;;;;;;20.02;7.68;;;;;;;7.93;36.31;99401.06;5062469;28;20049;-61
2021/03/17 09:49:11;;;;;;;19.92;7.18;;;;;;;7.86;36.56;99446.84;5070441;28;20127;-63
2021/03/17 09:51:38;;;;;;;21.40;7.57;;;;;;;7.47;37.05;99432.88;5070204;28;20032;-61
2021/03/17 09:54:07;;;;;;;17.92;7.55;;;;;;;7.06;37.98;99432.28;5069652;28;20032;-63
2021/03/17 09:56:41;;;;;;;17.73;7.40;;;;;;;7.12;37.83;99434.53;5068279;28;20056;-52
2021/03/17 09:59:18;;;;;;;24.83;7.95;;;;;;;7.25;38.25;99441.59;5063847;28;20063;-63
2021/03/17 10:02:27;;;;;;;20.20;7.78;;;;;;;7.26;38.08;99438.84;5067586;28;20040;-61
2021/03/17 10:04:57;;;;;;;33.97;8.35;;;;;;;7.18;37.56;99438.53;5056443;28;20039;-64
2021/03/17 10:07:25;;;;;;;30.17;8.35;;;;;;;7.13;37.97;99420.25;5058581;28;20040;-67
2021/03/17 10:09:52;;;;;;;27.08;7.60;;;;;;;7.36;38.19;99432.84;5055845;28;20028;-66
2021/03/17 10:12:21;;;;;;;20.20;7.72;;;;;;;7.57;37.60;99420.59;5054874;28;20045;-66
2021/03/17 10:14:53;;;;;;;24.33;8.13;;;;;;;7.79;37.39;99434.97;5061169;28;20085;-65
2021/03/17 10:17:20;;;;;;;27.45;8.13;;;;;;;7.72;37.08;99423.91;5056854;28;20468;-63
2021/03/17 10:19:51;;;;;;;26.80;8.00;;;;;;;7.73;36.99;99424.78;5054773;28;20119;-61
2021/03/17 10:22:18;;;;;;;17.52;6.82;;;;;;;7.66;37.23;99395.06;5063672;28;20037;-63
2021/03/17 10:24:46;;;;;;;25.83;7.20;;;;;;;7.71;36.30;99400.91;5061766;28;20130;-62
2021/03/17 10:27:24;;;;;;;30.58;7.10;;;;;;;7.78;36.53;99437.72;5065857;28;20040;-63
2021/03/17 10:29:51;;;;;;;27.35;6.93;;;;;;;7.50;36.91;99406.03;5063812;28;20090;-64
2021/03/17 10:32:23;;;;;;;20.83;7.38;;;;;;;7.51;36.84;99410.41;5060898;28;20071;-64
2021/03/17 10:34:51;;;;;;;32.75;7.03;;;;;;;7.56;36.56;99418.03;5068996;28;20505;-64
2021/03/17 10:37:20;;;;;;;21.08;7.00;;;;;;;7.75;36.70;99430.84;5064280;28;20444;-53
2021/03/17 10:39:48;;;;;;;29.15;7.70;;;;;;;7.86;36.63;99414.03;5065454;28;20060;-60
2021/03/17 10:42:25;;;;;;;18.52;7.03;;;;;;;7.95;36.26;99416.00;5060894;28;20032;-63
2021/03/17 10:45:00;;;;;;;31.75;8.00;;;;;;;7.93;36.38;99417.06;5055625;28;20139;-63
2021/03/17 10:47:26;;;;;;;21.15;6.78;;;;;;;7.88;36.53;99423.59;5056981;28;20119;-63
2021/03/17 10:49:52;;;;;;;28.00;6.82;;;;;;;7.88;36.60;99423.59;5060001;28;20128;-67
2021/03/17 10:52:17;;;;;;;34.05;7.30;;;;;;;8.03;36.18;99413.56;5071829;28;20394;-65
2021/03/17 10:54:45;;;;;;;24.65;7.03;;;;;;;7.96;36.28;99422.19;5066967;28;20040;-61
2021/03/17 10:57:24;;;;;;;38.97;7.18;;;;;;;8.00;36.36;99411.16;5060285;28;20036;-60
2021/03/17 10:59:50;;;;;;;37.33;7.82;;;;;;;7.85;36.13;99407.00;5056356;28;20440;-66
2021/03/17 11:02:20;;;;;;;32.95;7.75;;;;;;;7.73;35.88;99406.97;5064415;28;20033;-59
2021/03/17 11:05:15;;;;;;;33.55;7.68;;;;;;;7.47;36.93;99403.56;5059903;28;20024;-64
2021/03/17 11:07:55;;;;;;;27.27;7.95;;;;;;;7.29;37.25;99403.13;5067068;28;20501;-62
2021/03/17 11:10:30;;;;;;;28.35;7.07;;;;;;;7.37;36.90;99383.94;5068531;28;20032;-62
2021/03/17 11:12:55;;;;;;;37.75;7.32;;;;;;;7.47;36.90;99388.47;5068271;28;20051;-63
2021/03/17 11:15:31;;;;;;;34.13;7.30;;;;;;;7.49;36.60;99392.81;5070088;28;20039;-64
2021/03/17 11:17:58;;;;;;;29.13;7.43;;;;;;;7.55;36.79;99389.69;5055855;28;20039;-63
2021/03/17 11:20:24;;;;;;;31.92;8.10;;;;;;;7.27;36.13;99365.97;5065262;28;20577;-62
2021/03/17 11:22:50;;;;;;;32.50;8.57;;;;;;;6.79;36.83;99318.91;5060358;28;20529;-62
2021/03/17 11:25:26;;;;;;;28.20;7.00;;;;;;;7.32;37.01;99384.25;5062801;28;20032;-61
2021/03/17 11:27:52;;;;;;;27.23;7.45;;;;;;;7.51;37.03;99383.75;5062483;28;20124;-61
2021/03/17 11:30:20;;;;;;;30.92;7.18;;;;;;;7.64;37.00;99388.16;5063400;28;20036;-61
2021/03/17 11:32:46;;;;;;;34.13;7.00;;;;;;;7.72;36.57;99380.44;5060258;28;20040;-60
2021/03/17 11:35:13;;;;;;;39.22;7.63;;;;;;;7.70;36.80;99377.88;5056402;28;20041;-60
2021/03/17 11:37:39;;;;;;;39.90;8.15;;;;;;;7.73;36.51;99374.16;5062516;28;20032;-64
2021/03/17 11:40:06;;;;;;;40.75;9.65;;;;;;;7.78;36.61;99366.63;5068292;28;20089;-64
2021/03/17 11:42:31;;;;;;;38.47;8.20;;;;;;;7.79;36.57;99365.66;5066146;28;20040;-70
2021/03/17 11:44:57;;;;;;;45.47;7.85;;;;;;;7.81;36.73;99363.75;5063561;28;20464;-67
2021/03/17 11:47:23;;;;;;;44.08;7.80;;;;;;;7.68;37.11;99370.94;5055855;28;20409;-61